sensor_id;sensor_type;location;lat;lon;timestamp;P1;durP1;ratioP1;P2;durP2;ratioP2
65753;SDS011;52488;47.502;18.940;2023-03-31T00:00:16;10.27;;;6.72;;
65753;SDS011;52488;47.502;18.940;2023-03-31T00:01:20;12.95;;;6.65;;
65753;SDS011;52488;47.502;18.940;2023-03-31T00:02:23;11.05;;;6.45;;
65753;SDS011;52488;47.502;18.940;2023-03-31T00:03:26;10.15;;;6.62;;
65753;SDS011;52488;47.502;18.940;2023-03-31T00:04:29;12.43;;;6.43;;
65753;SDS011;52488;47.502;18.940;2023-03-31T00:05:35;9.60;;;6.35;;
65753;SDS011;52488;47.502;18.940;2023-03-31T00:06:39;13.60;;;6.18;;
65753;SDS011;52488;47.502;18.940;2023-03-31T00:07:43;8.27;;;5.60;;
65753;SDS011;52488;47.502;18.940;2023-03-31T00:08:47;12.48;;;6.32;;
65753;SDS011;52488;47.502;18.940;2023-03-31T00:09:53;9.80;;;5.55;;
65753;SDS011;52488;47.502;18.940;2023-03-31T00:11:18;10.48;;;5.87;;
65753;SDS011;52488;47.502;18.940;2023-03-31T00:12:23;8.85;;;5.32;;
65753;SDS011;52488;47.502;18.940;2023-03-31T00:13:26;8.43;;;5.35;;
65753;SDS011;52488;47.502;18.940;2023-03-31T00:14:29;9.75;;;5.80;;
65753;SDS011;52488;47.502;18.940;2023-03-31T00:15:32;11.23;;;5.97;;
65753;SDS011;52488;47.502;18.940;2023-03-31T00:16:35;8.85;;;5.50;;
65753;SDS011;52488;47.502;18.940;2023-03-31T00:17:40;9.73;;;5.43;;
65753;SDS011;52488;47.502;18.940;2023-03-31T00:18:42;8.85;;;5.53;;
65753;SDS011;52488;47.502;18.940;2023-03-31T00:19:49;8.73;;;5.35;;
65753;SDS011;52488;47.502;18.940;2023-03-31T00:20:52;7.97;;;5.07;;
65753;SDS011;52488;47.502;18.940;2023-03-31T00:21:55;8.93;;;5.32;;
65753;SDS011;52488;47.502;18.940;2023-03-31T00:23:03;10.50;;;5.43;;
65753;SDS011;52488;47.502;18.940;2023-03-31T00:24:13;7.62;;;4.85;;
65753;SDS011;52488;47.502;18.940;2023-03-31T00:25:17;11.65;;;5.30;;
65753;SDS011;52488;47.502;18.940;2023-03-31T00:26:19;7.30;;;5.18;;
65753;SDS011;52488;47.502;18.940;2023-03-31T00:27:24;8.48;;;4.82;;
65753;SDS011;52488;47.502;18.940;2023-03-31T00:28:26;6.50;;;5.28;;
65753;SDS011;52488;47.502;18.940;2023-03-31T00:29:29;8.38;;;5.30;;
65753;SDS011;52488;47.502;18.940;2023-03-31T00:30:35;9.52;;;5.25;;
65753;SDS011;52488;47.502;18.940;2023-03-31T00:31:37;10.27;;;5.32;;
65753;SDS011;52488;47.502;18.940;2023-03-31T00:32:41;7.35;;;5.07;;
65753;SDS011;52488;47.502;18.940;2023-03-31T00:33:44;6.68;;;5.10;;
65753;SDS011;52488;47.502;18.940;2023-03-31T00:34:46;11.35;;;5.57;;
65753;SDS011;52488;47.502;18.940;2023-03-31T00:35:52;9.05;;;5.25;;
65753;SDS011;52488;47.502;18.940;2023-03-31T00:36:55;6.68;;;4.87;;
65753;SDS011;52488;47.502;18.940;2023-03-31T00:37:59;7.75;;;5.15;;
65753;SDS011;52488;47.502;18.940;2023-03-31T00:39:03;10.35;;;5.43;;
65753;SDS011;52488;47.502;18.940;2023-03-31T00:40:10;7.30;;;5.15;;
65753;SDS011;52488;47.502;18.940;2023-03-31T00:41:13;7.22;;;4.82;;
65753;SDS011;52488;47.502;18.940;2023-03-31T00:42:17;8.32;;;5.22;;
65753;SDS011;52488;47.502;18.940;2023-03-31T00:43:25;11.00;;;4.80;;
65753;SDS011;52488;47.502;18.940;2023-03-31T00:46:25;10.48;;;5.05;;
65753;SDS011;52488;47.502;18.940;2023-03-31T00:47:32;7.25;;;4.65;;
65753;SDS011;52488;47.502;18.940;2023-03-31T00:48:36;12.05;;;5.20;;
65753;SDS011;52488;47.502;18.940;2023-03-31T00:49:44;5.97;;;4.85;;
65753;SDS011;52488;47.502;18.940;2023-03-31T00:50:48;10.32;;;4.75;;
65753;SDS011;52488;47.502;18.940;2023-03-31T00:52:06;7.37;;;4.75;;
65753;SDS011;52488;47.502;18.940;2023-03-31T00:53:27;7.57;;;5.10;;
65753;SDS011;52488;47.502;18.940;2023-03-31T00:54:34;9.75;;;5.12;;
65753;SDS011;52488;47.502;18.940;2023-03-31T00:55:41;9.20;;;5.07;;
65753;SDS011;52488;47.502;18.940;2023-03-31T00:56:46;6.60;;;4.80;;
65753;SDS011;52488;47.502;18.940;2023-03-31T00:57:51;11.40;;;4.85;;
65753;SDS011;52488;47.502;18.940;2023-03-31T00:58:56;6.95;;;5.00;;
65753;SDS011;52488;47.502;18.940;2023-03-31T01:00:04;8.48;;;4.80;;
65753;SDS011;52488;47.502;18.940;2023-03-31T01:01:20;8.75;;;4.55;;
65753;SDS011;52488;47.502;18.940;2023-03-31T01:02:28;6.32;;;4.43;;
65753;SDS011;52488;47.502;18.940;2023-03-31T01:03:30;9.25;;;4.68;;
65753;SDS011;52488;47.502;18.940;2023-03-31T01:04:36;7.75;;;4.50;;
65753;SDS011;52488;47.502;18.940;2023-03-31T01:08:35;6.40;;;4.40;;
65753;SDS011;52488;47.502;18.940;2023-03-31T01:09:39;6.70;;;4.62;;
65753;SDS011;52488;47.502;18.940;2023-03-31T01:10:47;7.20;;;4.95;;
65753;SDS011;52488;47.502;18.940;2023-03-31T01:12:05;6.97;;;4.35;;
65753;SDS011;52488;47.502;18.940;2023-03-31T01:13:10;6.78;;;4.30;;
65753;SDS011;52488;47.502;18.940;2023-03-31T01:14:16;8.73;;;4.65;;
65753;SDS011;52488;47.502;18.940;2023-03-31T01:15:19;7.10;;;5.07;;
65753;SDS011;52488;47.502;18.940;2023-03-31T01:16:22;8.82;;;4.55;;
65753;SDS011;52488;47.502;18.940;2023-03-31T01:17:25;8.48;;;5.18;;
65753;SDS011;52488;47.502;18.940;2023-03-31T01:18:31;7.45;;;4.82;;
65753;SDS011;52488;47.502;18.940;2023-03-31T01:27:28;8.13;;;4.60;;
65753;SDS011;52488;47.502;18.940;2023-03-31T01:28:46;8.30;;;4.47;;
65753;SDS011;52488;47.502;18.940;2023-03-31T01:35:31;7.05;;;4.43;;
65753;SDS011;52488;47.502;18.940;2023-03-31T01:41:44;7.22;;;5.10;;
65753;SDS011;52488;47.502;18.940;2023-03-31T01:44:44;6.37;;;4.57;;
65753;SDS011;52488;47.502;18.940;2023-03-31T01:46:09;8.52;;;4.82;;
65753;SDS011;52488;47.502;18.940;2023-03-31T01:47:18;7.25;;;4.45;;
65753;SDS011;52488;47.502;18.940;2023-03-31T01:50:01;6.32;;;4.30;;
65753;SDS011;52488;47.502;18.940;2023-03-31T01:52:19;7.68;;;3.95;;
65753;SDS011;52488;47.502;18.940;2023-03-31T01:53:44;6.00;;;4.40;;
65753;SDS011;52488;47.502;18.940;2023-03-31T01:55:38;7.65;;;4.40;;
65753;SDS011;52488;47.502;18.940;2023-03-31T01:56:46;8.95;;;4.37;;
65753;SDS011;52488;47.502;18.940;2023-03-31T01:58:05;6.97;;;4.37;;
65753;SDS011;52488;47.502;18.940;2023-03-31T02:00:42;7.30;;;3.85;;
65753;SDS011;52488;47.502;18.940;2023-03-31T02:01:56;7.15;;;4.65;;
65753;SDS011;52488;47.502;18.940;2023-03-31T02:03:04;7.28;;;4.30;;
65753;SDS011;52488;47.502;18.940;2023-03-31T02:05:25;4.93;;;4.05;;
65753;SDS011;52488;47.502;18.940;2023-03-31T02:06:34;7.97;;;4.68;;
65753;SDS011;52488;47.502;18.940;2023-03-31T02:07:43;8.30;;;4.90;;
65753;SDS011;52488;47.502;18.940;2023-03-31T02:08:56;6.40;;;4.47;;
65753;SDS011;52488;47.502;18.940;2023-03-31T02:10:05;7.95;;;4.10;;
65753;SDS011;52488;47.502;18.940;2023-03-31T02:11:11;6.03;;;4.45;;
65753;SDS011;52488;47.502;18.940;2023-03-31T02:12:14;6.57;;;4.45;;
65753;SDS011;52488;47.502;18.940;2023-03-31T02:13:18;6.80;;;4.30;;
65753;SDS011;52488;47.502;18.940;2023-03-31T02:14:25;8.65;;;4.80;;
65753;SDS011;52488;47.502;18.940;2023-03-31T02:15:34;9.82;;;5.03;;
65753;SDS011;52488;47.502;18.940;2023-03-31T02:16:40;9.95;;;4.32;;
65753;SDS011;52488;47.502;18.940;2023-03-31T02:17:50;6.82;;;3.78;;
65753;SDS011;52488;47.502;18.940;2023-03-31T02:18:58;5.97;;;3.87;;
65753;SDS011;52488;47.502;18.940;2023-03-31T02:20:10;9.02;;;4.60;;
65753;SDS011;52488;47.502;18.940;2023-03-31T02:21:17;7.90;;;4.32;;
65753;SDS011;52488;47.502;18.940;2023-03-31T02:22:22;8.73;;;4.22;;
65753;SDS011;52488;47.502;18.940;2023-03-31T02:23:26;4.68;;;4.18;;
65753;SDS011;52488;47.502;18.940;2023-03-31T02:24:33;9.60;;;4.03;;
65753;SDS011;52488;47.502;18.940;2023-03-31T02:25:44;8.45;;;4.57;;
65753;SDS011;52488;47.502;18.940;2023-03-31T02:28:15;7.40;;;3.47;;
65753;SDS011;52488;47.502;18.940;2023-03-31T02:29:23;6.07;;;4.20;;
65753;SDS011;52488;47.502;18.940;2023-03-31T02:30:28;5.78;;;4.47;;
65753;SDS011;52488;47.502;18.940;2023-03-31T02:31:46;7.57;;;4.70;;
65753;SDS011;52488;47.502;18.940;2023-03-31T02:32:55;6.57;;;3.87;;
65753;SDS011;52488;47.502;18.940;2023-03-31T02:33:59;4.68;;;3.50;;
65753;SDS011;52488;47.502;18.940;2023-03-31T02:35:03;6.60;;;4.20;;
65753;SDS011;52488;47.502;18.940;2023-03-31T02:36:07;5.45;;;4.07;;
65753;SDS011;52488;47.502;18.940;2023-03-31T02:37:11;7.50;;;3.97;;
65753;SDS011;52488;47.502;18.940;2023-03-31T02:38:15;4.87;;;3.72;;
65753;SDS011;52488;47.502;18.940;2023-03-31T02:39:19;8.77;;;3.90;;
65753;SDS011;52488;47.502;18.940;2023-03-31T02:40:26;7.72;;;4.43;;
65753;SDS011;52488;47.502;18.940;2023-03-31T02:41:29;8.52;;;4.25;;
65753;SDS011;52488;47.502;18.940;2023-03-31T02:42:32;6.65;;;4.03;;
65753;SDS011;52488;47.502;18.940;2023-03-31T02:43:35;7.35;;;3.75;;
65753;SDS011;52488;47.502;18.940;2023-03-31T02:44:38;10.27;;;4.55;;
65753;SDS011;52488;47.502;18.940;2023-03-31T02:45:42;7.50;;;4.47;;
65753;SDS011;52488;47.502;18.940;2023-03-31T02:46:47;5.07;;;4.37;;
65753;SDS011;52488;47.502;18.940;2023-03-31T02:47:51;9.45;;;4.20;;
65753;SDS011;52488;47.502;18.940;2023-03-31T02:48:55;10.10;;;4.45;;
65753;SDS011;52488;47.502;18.940;2023-03-31T02:50:01;7.55;;;4.10;;
65753;SDS011;52488;47.502;18.940;2023-03-31T02:58:26;5.37;;;3.78;;
65753;SDS011;52488;47.502;18.940;2023-03-31T03:00:37;5.12;;;3.87;;
65753;SDS011;52488;47.502;18.940;2023-03-31T03:03:07;6.10;;;3.70;;
65753;SDS011;52488;47.502;18.940;2023-03-31T03:08:51;6.60;;;4.00;;
65753;SDS011;52488;47.502;18.940;2023-03-31T03:10:09;6.05;;;3.72;;
65753;SDS011;52488;47.502;18.940;2023-03-31T03:11:21;6.37;;;3.45;;
65753;SDS011;52488;47.502;18.940;2023-03-31T03:12:48;7.85;;;3.70;;
65753;SDS011;52488;47.502;18.940;2023-03-31T03:14:09;6.68;;;3.47;;
65753;SDS011;52488;47.502;18.940;2023-03-31T03:15:16;5.60;;;3.45;;
65753;SDS011;52488;47.502;18.940;2023-03-31T03:16:22;7.05;;;3.85;;
65753;SDS011;52488;47.502;18.940;2023-03-31T03:17:30;6.18;;;4.15;;
65753;SDS011;52488;47.502;18.940;2023-03-31T03:18:37;4.95;;;3.80;;
65753;SDS011;52488;47.502;18.940;2023-03-31T03:19:40;5.57;;;3.62;;
65753;SDS011;52488;47.502;18.940;2023-03-31T03:20:44;4.35;;;3.30;;
65753;SDS011;52488;47.502;18.940;2023-03-31T03:21:52;7.12;;;3.83;;
65753;SDS011;52488;47.502;18.940;2023-03-31T03:22:55;6.22;;;3.75;;
65753;SDS011;52488;47.502;18.940;2023-03-31T03:23:58;5.35;;;3.58;;
65753;SDS011;52488;47.502;18.940;2023-03-31T03:25:06;7.62;;;4.50;;
65753;SDS011;52488;47.502;18.940;2023-03-31T03:26:11;6.18;;;3.72;;
65753;SDS011;52488;47.502;18.940;2023-03-31T03:27:14;7.97;;;4.00;;
65753;SDS011;52488;47.502;18.940;2023-03-31T03:28:17;7.45;;;4.18;;
65753;SDS011;52488;47.502;18.940;2023-03-31T03:29:20;7.95;;;3.78;;
65753;SDS011;52488;47.502;18.940;2023-03-31T03:30:23;9.20;;;3.78;;
65753;SDS011;52488;47.502;18.940;2023-03-31T03:31:27;4.95;;;3.53;;
65753;SDS011;52488;47.502;18.940;2023-03-31T03:32:30;7.00;;;3.92;;
65753;SDS011;52488;47.502;18.940;2023-03-31T03:33:34;5.80;;;3.67;;
65753;SDS011;52488;47.502;18.940;2023-03-31T03:34:38;5.82;;;3.75;;
65753;SDS011;52488;47.502;18.940;2023-03-31T03:35:41;5.10;;;3.37;;
65753;SDS011;52488;47.502;18.940;2023-03-31T03:36:44;7.45;;;4.07;;
65753;SDS011;52488;47.502;18.940;2023-03-31T03:37:48;8.65;;;4.32;;
65753;SDS011;52488;47.502;18.940;2023-03-31T03:38:51;7.65;;;3.85;;
65753;SDS011;52488;47.502;18.940;2023-03-31T03:39:54;6.53;;;3.70;;
65753;SDS011;52488;47.502;18.940;2023-03-31T03:40:57;9.43;;;3.83;;
65753;SDS011;52488;47.502;18.940;2023-03-31T03:41:59;5.87;;;3.80;;
65753;SDS011;52488;47.502;18.940;2023-03-31T03:43:02;6.40;;;3.83;;
65753;SDS011;52488;47.502;18.940;2023-03-31T03:44:05;4.53;;;3.67;;
65753;SDS011;52488;47.502;18.940;2023-03-31T03:45:08;6.93;;;4.05;;
65753;SDS011;52488;47.502;18.940;2023-03-31T03:46:11;6.05;;;4.10;;
65753;SDS011;52488;47.502;18.940;2023-03-31T03:47:14;6.10;;;4.20;;
65753;SDS011;52488;47.502;18.940;2023-03-31T03:48:17;7.90;;;3.83;;
65753;SDS011;52488;47.502;18.940;2023-03-31T03:49:20;6.03;;;3.70;;
65753;SDS011;52488;47.502;18.940;2023-03-31T03:50:23;5.20;;;3.85;;
65753;SDS011;52488;47.502;18.940;2023-03-31T03:51:26;7.15;;;3.75;;
65753;SDS011;52488;47.502;18.940;2023-03-31T03:52:29;5.72;;;3.22;;
65753;SDS011;52488;47.502;18.940;2023-03-31T03:53:32;7.32;;;3.47;;
65753;SDS011;52488;47.502;18.940;2023-03-31T03:54:35;7.00;;;3.65;;
65753;SDS011;52488;47.502;18.940;2023-03-31T03:55:38;7.37;;;3.45;;
65753;SDS011;52488;47.502;18.940;2023-03-31T03:56:41;6.82;;;3.60;;
65753;SDS011;52488;47.502;18.940;2023-03-31T03:57:44;7.30;;;3.45;;
65753;SDS011;52488;47.502;18.940;2023-03-31T03:58:47;8.27;;;3.95;;
65753;SDS011;52488;47.502;18.940;2023-03-31T03:59:49;7.70;;;3.67;;
65753;SDS011;52488;47.502;18.940;2023-03-31T04:00:52;9.55;;;3.60;;
65753;SDS011;52488;47.502;18.940;2023-03-31T04:01:55;8.43;;;3.58;;
65753;SDS011;52488;47.502;18.940;2023-03-31T04:02:58;6.00;;;3.83;;
65753;SDS011;52488;47.502;18.940;2023-03-31T04:04:01;6.80;;;3.53;;
65753;SDS011;52488;47.502;18.940;2023-03-31T04:05:05;7.80;;;3.90;;
65753;SDS011;52488;47.502;18.940;2023-03-31T04:06:08;10.68;;;3.85;;
65753;SDS011;52488;47.502;18.940;2023-03-31T04:07:11;5.40;;;3.67;;
65753;SDS011;52488;47.502;18.940;2023-03-31T04:08:14;6.18;;;3.42;;
65753;SDS011;52488;47.502;18.940;2023-03-31T04:09:17;5.43;;;3.83;;
65753;SDS011;52488;47.502;18.940;2023-03-31T04:10:19;7.60;;;3.87;;
65753;SDS011;52488;47.502;18.940;2023-03-31T04:11:22;5.18;;;3.53;;
65753;SDS011;52488;47.502;18.940;2023-03-31T04:12:25;5.15;;;3.42;;
65753;SDS011;52488;47.502;18.940;2023-03-31T04:13:28;7.80;;;3.95;;
65753;SDS011;52488;47.502;18.940;2023-03-31T04:14:31;6.62;;;3.80;;
65753;SDS011;52488;47.502;18.940;2023-03-31T04:15:34;5.30;;;3.70;;
65753;SDS011;52488;47.502;18.940;2023-03-31T04:16:37;6.70;;;3.58;;
65753;SDS011;52488;47.502;18.940;2023-03-31T04:17:42;7.18;;;3.90;;
65753;SDS011;52488;47.502;18.940;2023-03-31T04:18:52;4.65;;;3.75;;
65753;SDS011;52488;47.502;18.940;2023-03-31T04:20:02;6.10;;;3.58;;
65753;SDS011;52488;47.502;18.940;2023-03-31T04:21:09;9.10;;;4.60;;
65753;SDS011;52488;47.502;18.940;2023-03-31T04:22:16;7.75;;;3.65;;
65753;SDS011;52488;47.502;18.940;2023-03-31T04:23:21;5.87;;;3.67;;
65753;SDS011;52488;47.502;18.940;2023-03-31T04:24:27;6.37;;;3.42;;
65753;SDS011;52488;47.502;18.940;2023-03-31T04:25:34;6.53;;;3.55;;
65753;SDS011;52488;47.502;18.940;2023-03-31T04:26:39;7.12;;;3.70;;
65753;SDS011;52488;47.502;18.940;2023-03-31T04:27:46;5.87;;;3.90;;
65753;SDS011;52488;47.502;18.940;2023-03-31T04:28:56;5.75;;;3.80;;
65753;SDS011;52488;47.502;18.940;2023-03-31T04:30:03;6.30;;;3.58;;
65753;SDS011;52488;47.502;18.940;2023-03-31T04:31:08;7.28;;;4.10;;
65753;SDS011;52488;47.502;18.940;2023-03-31T04:32:12;5.75;;;3.80;;
65753;SDS011;52488;47.502;18.940;2023-03-31T04:33:16;6.35;;;4.05;;
65753;SDS011;52488;47.502;18.940;2023-03-31T04:34:20;6.95;;;3.78;;
65753;SDS011;52488;47.502;18.940;2023-03-31T04:35:24;11.77;;;5.25;;
65753;SDS011;52488;47.502;18.940;2023-03-31T04:36:28;7.97;;;4.47;;
65753;SDS011;52488;47.502;18.940;2023-03-31T04:37:33;8.32;;;4.07;;
65753;SDS011;52488;47.502;18.940;2023-03-31T04:38:40;6.25;;;4.20;;
65753;SDS011;52488;47.502;18.940;2023-03-31T04:39:42;11.20;;;4.22;;
65753;SDS011;52488;47.502;18.940;2023-03-31T04:40:49;6.28;;;3.90;;
65753;SDS011;52488;47.502;18.940;2023-03-31T04:41:53;6.32;;;3.78;;
65753;SDS011;52488;47.502;18.940;2023-03-31T04:42:55;6.75;;;3.95;;
65753;SDS011;52488;47.502;18.940;2023-03-31T04:43:58;8.25;;;3.95;;
65753;SDS011;52488;47.502;18.940;2023-03-31T04:45:01;6.97;;;4.10;;
65753;SDS011;52488;47.502;18.940;2023-03-31T04:46:05;5.60;;;3.90;;
65753;SDS011;52488;47.502;18.940;2023-03-31T04:47:08;8.50;;;3.97;;
65753;SDS011;52488;47.502;18.940;2023-03-31T04:48:11;9.65;;;4.10;;
65753;SDS011;52488;47.502;18.940;2023-03-31T04:49:14;7.40;;;4.00;;
65753;SDS011;52488;47.502;18.940;2023-03-31T04:50:17;7.43;;;4.30;;
65753;SDS011;52488;47.502;18.940;2023-03-31T04:51:20;5.97;;;4.03;;
65753;SDS011;52488;47.502;18.940;2023-03-31T04:52:22;8.20;;;3.87;;
65753;SDS011;52488;47.502;18.940;2023-03-31T04:53:25;5.70;;;3.67;;
65753;SDS011;52488;47.502;18.940;2023-03-31T04:54:29;6.95;;;4.12;;
65753;SDS011;52488;47.502;18.940;2023-03-31T04:55:31;5.15;;;4.00;;
65753;SDS011;52488;47.502;18.940;2023-03-31T04:56:34;8.82;;;4.10;;
65753;SDS011;52488;47.502;18.940;2023-03-31T04:57:37;7.37;;;3.85;;
65753;SDS011;52488;47.502;18.940;2023-03-31T04:58:40;6.65;;;3.78;;
65753;SDS011;52488;47.502;18.940;2023-03-31T04:59:43;5.07;;;3.75;;
65753;SDS011;52488;47.502;18.940;2023-03-31T05:00:46;6.70;;;4.00;;
65753;SDS011;52488;47.502;18.940;2023-03-31T05:01:49;8.32;;;4.18;;
65753;SDS011;52488;47.502;18.940;2023-03-31T05:02:52;4.90;;;3.87;;
65753;SDS011;52488;47.502;18.940;2023-03-31T05:03:55;8.73;;;4.25;;
65753;SDS011;52488;47.502;18.940;2023-03-31T05:04:57;5.75;;;3.95;;
65753;SDS011;52488;47.502;18.940;2023-03-31T05:06:00;7.07;;;4.50;;
65753;SDS011;52488;47.502;18.940;2023-03-31T05:07:03;5.87;;;3.87;;
65753;SDS011;52488;47.502;18.940;2023-03-31T05:08:06;4.53;;;3.67;;
65753;SDS011;52488;47.502;18.940;2023-03-31T05:09:09;5.55;;;3.78;;
65753;SDS011;52488;47.502;18.940;2023-03-31T05:10:13;7.30;;;4.25;;
65753;SDS011;52488;47.502;18.940;2023-03-31T05:11:16;6.90;;;3.95;;
65753;SDS011;52488;47.502;18.940;2023-03-31T05:12:19;7.22;;;4.10;;
65753;SDS011;52488;47.502;18.940;2023-03-31T05:13:22;5.62;;;3.80;;
65753;SDS011;52488;47.502;18.940;2023-03-31T05:14:24;8.10;;;4.50;;
65753;SDS011;52488;47.502;18.940;2023-03-31T05:15:27;8.98;;;4.00;;
65753;SDS011;52488;47.502;18.940;2023-03-31T05:16:30;8.32;;;3.78;;
65753;SDS011;52488;47.502;18.940;2023-03-31T05:17:34;8.52;;;3.78;;
65753;SDS011;52488;47.502;18.940;2023-03-31T05:18:37;6.20;;;3.55;;
65753;SDS011;52488;47.502;18.940;2023-03-31T05:19:40;5.18;;;3.20;;
65753;SDS011;52488;47.502;18.940;2023-03-31T05:20:43;6.75;;;3.40;;
65753;SDS011;52488;47.502;18.940;2023-03-31T05:21:46;4.65;;;3.25;;
65753;SDS011;52488;47.502;18.940;2023-03-31T05:22:50;6.03;;;3.17;;
65753;SDS011;52488;47.502;18.940;2023-03-31T05:23:53;5.90;;;3.60;;
65753;SDS011;52488;47.502;18.940;2023-03-31T05:24:56;5.90;;;3.15;;
65753;SDS011;52488;47.502;18.940;2023-03-31T05:25:59;7.22;;;3.92;;
65753;SDS011;52488;47.502;18.940;2023-03-31T05:27:02;3.87;;;3.45;;
65753;SDS011;52488;47.502;18.940;2023-03-31T05:28:04;3.87;;;3.25;;
65753;SDS011;52488;47.502;18.940;2023-03-31T05:29:07;4.50;;;3.30;;
65753;SDS011;52488;47.502;18.940;2023-03-31T05:30:10;5.25;;;3.50;;
65753;SDS011;52488;47.502;18.940;2023-03-31T05:31:13;4.87;;;3.60;;
65753;SDS011;52488;47.502;18.940;2023-03-31T05:32:16;6.55;;;3.72;;
65753;SDS011;52488;47.502;18.940;2023-03-31T05:33:19;4.37;;;3.20;;
65753;SDS011;52488;47.502;18.940;2023-03-31T05:34:22;5.55;;;3.60;;
65753;SDS011;52488;47.502;18.940;2023-03-31T05:35:24;5.95;;;3.25;;
65753;SDS011;52488;47.502;18.940;2023-03-31T05:36:27;5.47;;;3.80;;
65753;SDS011;52488;47.502;18.940;2023-03-31T05:37:30;4.28;;;3.50;;
65753;SDS011;52488;47.502;18.940;2023-03-31T05:38:33;4.90;;;3.30;;
65753;SDS011;52488;47.502;18.940;2023-03-31T05:39:37;6.30;;;3.87;;
65753;SDS011;52488;47.502;18.940;2023-03-31T05:40:39;6.37;;;3.72;;
65753;SDS011;52488;47.502;18.940;2023-03-31T05:41:42;10.35;;;3.92;;
65753;SDS011;52488;47.502;18.940;2023-03-31T05:42:45;5.03;;;3.40;;
65753;SDS011;52488;47.502;18.940;2023-03-31T05:43:48;4.75;;;3.75;;
65753;SDS011;52488;47.502;18.940;2023-03-31T05:44:50;10.98;;;4.07;;
65753;SDS011;52488;47.502;18.940;2023-03-31T05:45:53;11.43;;;3.87;;
65753;SDS011;52488;47.502;18.940;2023-03-31T05:46:56;6.15;;;3.80;;
65753;SDS011;52488;47.502;18.940;2023-03-31T05:47:59;8.77;;;3.85;;
65753;SDS011;52488;47.502;18.940;2023-03-31T05:49:02;4.40;;;3.55;;
65753;SDS011;52488;47.502;18.940;2023-03-31T05:50:05;7.85;;;4.05;;
65753;SDS011;52488;47.502;18.940;2023-03-31T05:51:10;4.57;;;3.60;;
65753;SDS011;52488;47.502;18.940;2023-03-31T05:52:13;6.87;;;3.75;;
65753;SDS011;52488;47.502;18.940;2023-03-31T05:53:16;6.12;;;3.53;;
65753;SDS011;52488;47.502;18.940;2023-03-31T05:54:18;9.90;;;4.15;;
65753;SDS011;52488;47.502;18.940;2023-03-31T05:55:22;5.72;;;3.60;;
65753;SDS011;52488;47.502;18.940;2023-03-31T05:56:24;5.72;;;3.72;;
65753;SDS011;52488;47.502;18.940;2023-03-31T05:57:28;5.95;;;3.58;;
65753;SDS011;52488;47.502;18.940;2023-03-31T05:58:34;6.85;;;4.00;;
65753;SDS011;52488;47.502;18.940;2023-03-31T05:59:38;6.30;;;3.40;;
65753;SDS011;52488;47.502;18.940;2023-03-31T06:00:43;7.00;;;3.70;;
65753;SDS011;52488;47.502;18.940;2023-03-31T06:01:47;5.70;;;3.75;;
65753;SDS011;52488;47.502;18.940;2023-03-31T06:02:50;5.68;;;3.50;;
65753;SDS011;52488;47.502;18.940;2023-03-31T06:03:53;7.95;;;3.78;;
65753;SDS011;52488;47.502;18.940;2023-03-31T06:04:56;6.25;;;3.60;;
65753;SDS011;52488;47.502;18.940;2023-03-31T06:05:59;6.20;;;3.28;;
65753;SDS011;52488;47.502;18.940;2023-03-31T06:07:03;6.68;;;3.67;;
65753;SDS011;52488;47.502;18.940;2023-03-31T06:08:06;8.18;;;3.80;;
65753;SDS011;52488;47.502;18.940;2023-03-31T06:09:09;6.75;;;3.37;;
65753;SDS011;52488;47.502;18.940;2023-03-31T06:10:14;7.75;;;3.58;;
65753;SDS011;52488;47.502;18.940;2023-03-31T06:11:18;4.95;;;3.42;;
65753;SDS011;52488;47.502;18.940;2023-03-31T06:12:22;6.35;;;3.55;;
65753;SDS011;52488;47.502;18.940;2023-03-31T06:13:25;7.47;;;3.55;;
65753;SDS011;52488;47.502;18.940;2023-03-31T06:14:28;4.87;;;3.37;;
65753;SDS011;52488;47.502;18.940;2023-03-31T06:15:31;6.07;;;3.70;;
65753;SDS011;52488;47.502;18.940;2023-03-31T06:16:33;5.10;;;3.45;;
65753;SDS011;52488;47.502;18.940;2023-03-31T06:17:36;4.53;;;3.45;;
65753;SDS011;52488;47.502;18.940;2023-03-31T06:18:40;4.82;;;3.33;;
65753;SDS011;52488;47.502;18.940;2023-03-31T06:19:43;6.55;;;3.40;;
65753;SDS011;52488;47.502;18.940;2023-03-31T06:20:46;5.10;;;3.55;;
65753;SDS011;52488;47.502;18.940;2023-03-31T06:21:49;7.45;;;3.60;;
65753;SDS011;52488;47.502;18.940;2023-03-31T06:22:52;6.90;;;3.37;;
65753;SDS011;52488;47.502;18.940;2023-03-31T06:23:55;6.55;;;4.10;;
65753;SDS011;52488;47.502;18.940;2023-03-31T06:24:59;5.18;;;3.42;;
65753;SDS011;52488;47.502;18.940;2023-03-31T06:26:03;7.00;;;2.95;;
65753;SDS011;52488;47.502;18.940;2023-03-31T06:27:09;5.80;;;3.55;;
65753;SDS011;52488;47.502;18.940;2023-03-31T06:28:12;5.78;;;3.55;;
65753;SDS011;52488;47.502;18.940;2023-03-31T06:29:15;6.18;;;3.08;;
65753;SDS011;52488;47.502;18.940;2023-03-31T06:30:18;6.43;;;3.35;;
65753;SDS011;52488;47.502;18.940;2023-03-31T06:31:22;5.78;;;3.08;;
65753;SDS011;52488;47.502;18.940;2023-03-31T06:32:26;5.87;;;3.37;;
65753;SDS011;52488;47.502;18.940;2023-03-31T06:33:28;4.60;;;3.12;;
65753;SDS011;52488;47.502;18.940;2023-03-31T06:34:31;6.25;;;3.00;;
65753;SDS011;52488;47.502;18.940;2023-03-31T06:35:37;7.03;;;3.00;;
65753;SDS011;52488;47.502;18.940;2023-03-31T06:36:41;6.82;;;3.30;;
65753;SDS011;52488;47.502;18.940;2023-03-31T06:37:44;5.37;;;3.20;;
65753;SDS011;52488;47.502;18.940;2023-03-31T06:38:48;4.30;;;3.12;;
65753;SDS011;52488;47.502;18.940;2023-03-31T06:39:52;5.85;;;3.50;;
65753;SDS011;52488;47.502;18.940;2023-03-31T06:40:55;4.70;;;2.70;;
65753;SDS011;52488;47.502;18.940;2023-03-31T06:41:58;6.97;;;3.00;;
65753;SDS011;52488;47.502;18.940;2023-03-31T06:43:01;4.75;;;2.95;;
65753;SDS011;52488;47.502;18.940;2023-03-31T06:44:04;5.95;;;3.08;;
65753;SDS011;52488;47.502;18.940;2023-03-31T06:45:07;4.78;;;3.05;;
65753;SDS011;52488;47.502;18.940;2023-03-31T06:46:10;6.80;;;3.28;;
65753;SDS011;52488;47.502;18.940;2023-03-31T06:47:13;5.05;;;2.87;;
65753;SDS011;52488;47.502;18.940;2023-03-31T06:48:16;7.45;;;3.03;;
65753;SDS011;52488;47.502;18.940;2023-03-31T06:49:19;5.57;;;2.78;;
65753;SDS011;52488;47.502;18.940;2023-03-31T06:50:22;4.28;;;3.00;;
65753;SDS011;52488;47.502;18.940;2023-03-31T06:51:25;5.45;;;3.20;;
65753;SDS011;52488;47.502;18.940;2023-03-31T06:52:29;5.60;;;2.70;;
65753;SDS011;52488;47.502;18.940;2023-03-31T06:53:33;5.18;;;3.58;;
65753;SDS011;52488;47.502;18.940;2023-03-31T06:54:36;8.18;;;3.30;;
65753;SDS011;52488;47.502;18.940;2023-03-31T06:55:39;4.82;;;2.67;;
65753;SDS011;52488;47.502;18.940;2023-03-31T06:56:42;8.48;;;2.92;;
65753;SDS011;52488;47.502;18.940;2023-03-31T06:57:45;5.75;;;2.80;;
65753;SDS011;52488;47.502;18.940;2023-03-31T06:58:48;7.22;;;2.60;;
65753;SDS011;52488;47.502;18.940;2023-03-31T06:59:51;4.93;;;2.92;;
65753;SDS011;52488;47.502;18.940;2023-03-31T07:00:54;3.97;;;3.15;;
65753;SDS011;52488;47.502;18.940;2023-03-31T07:01:57;5.72;;;2.92;;
65753;SDS011;52488;47.502;18.940;2023-03-31T07:03:00;5.03;;;2.90;;
65753;SDS011;52488;47.502;18.940;2023-03-31T07:04:03;4.82;;;2.75;;
65753;SDS011;52488;47.502;18.940;2023-03-31T07:05:06;5.97;;;3.12;;
65753;SDS011;52488;47.502;18.940;2023-03-31T07:06:09;6.07;;;3.05;;
65753;SDS011;52488;47.502;18.940;2023-03-31T07:07:12;6.65;;;3.53;;
65753;SDS011;52488;47.502;18.940;2023-03-31T07:08:15;6.90;;;3.60;;
65753;SDS011;52488;47.502;18.940;2023-03-31T07:09:21;4.37;;;3.47;;
65753;SDS011;52488;47.502;18.940;2023-03-31T07:10:25;8.80;;;3.60;;
65753;SDS011;52488;47.502;18.940;2023-03-31T07:11:30;6.90;;;3.47;;